KECS

Mondell Field Airport

Newcastle, Wyoming, USA
METAR KECS 172115Z AUTO 08003KT 10SM CLR 00/M05 A2984 RMK AO2
Observed Flight Rules
Dec-17 @ 21:15 UTC (21 minutes ago) Visual Flight Rules
Wind Visibility Clouds
80° at 3 knots 10 miles
  • Clear skies
Temperatures Readings
Current 0°C / 32°F
Dewpoint -5°C / 23°F
Humidity 69%
Altimeter 29.84" Hg
Pressure 1010 hPa
Elevation 1273
METAR KECS 172115Z AUTO 08003KT 10SM CLR 00/M05 A2984 RMK AO2
Observed Flight Rules
Dec-17 @ 21:15 UTC
(21 minutes ago)
VFR
Wind Visibility
80° at 3 knots 10 miles
Clouds
  • Clear skies
Temperature Dewpoint
0°C / 32°F -5°C / 23°F
Humidity Altimeter Pressure
69% 29.84" Hg 1010 hPa